Time;durP1;ratioP1;P1;durP2;ratioP2;P2;SDS_P1;SDS_P2;PMS_P1;PMS_P2;Temp;Humidity;BMP_temperature;BMP_pressure;BME280_temperature;BME280_humidity;BME280_pressure;Samples;Min_cycle;Max_cycle;Signal;HPM_P1;HPM_P2
2024/01/09 00:01:10;;;;;;;8.30;2.60;;;;;;;;;;10355933;28;20049;-63
2024/01/09 00:06:15;;;;;;;3.38;2.45;;;;;;;;;;10362643;28;20034;-65
2024/01/09 00:11:15;;;;;;;4.00;2.50;;;;;;;;;;10361274;28;20496;-64
2024/01/09 00:16:16;;;;;;;4.63;2.55;;;;;;;;;;10363092;28;20040;-64
2024/01/09 00:21:16;;;;;;;4.82;2.47;;;;;;;;;;10367714;28;20070;-68
2024/01/09 00:26:20;;;;;;;2.72;2.35;;;;;;;;;;10350320;28;20065;-66
2024/01/09 00:31:20;;;;;;;6.82;2.70;;;;;;;;;;10365591;28;20034;-65
2024/01/09 00:36:23;;;;;;;7.07;2.65;;;;;;;;;;10352716;28;20509;-66
2024/01/09 00:41:24;;;;;;;3.50;2.70;;;;;;;;;;10358390;28;20044;-64
2024/01/09 00:46:30;;;;;;;7.07;2.60;;;;;;;;;;10361016;28;20018;-65
2024/01/09 00:51:31;;;;;;;5.47;2.75;;;;;;;;;;10366628;28;20111;-65
2024/01/09 00:56:32;;;;;;;4.32;2.78;;;;;;;;;;10364924;28;20022;-65
2024/01/09 01:01:32;;;;;;;5.13;2.50;;;;;;;;;;10349353;28;20466;-65
2024/01/09 01:06:44;;;;;;;10.73;2.58;;;;;;;;;;10344802;28;20501;-65
2024/01/09 01:11:45;;;;;;;7.63;2.97;;;;;;;;;;10354819;28;20034;-65
2024/01/09 01:16:46;;;;;;;5.85;2.60;;;;;;;;;;10359791;28;20037;-64
2024/01/09 01:21:46;;;;;;;4.90;2.72;;;;;;;;;;10366015;28;20029;-65
2024/01/09 01:26:47;;;;;;;5.78;2.35;;;;;;;;;;10358775;28;20026;-65
2024/01/09 01:31:47;;;;;;;4.30;2.60;;;;;;;;;;10359797;28;20022;-65
2024/01/09 01:36:48;;;;;;;4.53;2.60;;;;;;;;;;10362591;28;20061;-64
2024/01/09 01:41:48;;;;;;;2.60;2.40;;;;;;;;;;10365769;28;20029;-65
2024/01/09 01:46:50;;;;;;;3.95;2.45;;;;;;;;;;10366012;28;20076;-64
2024/01/09 01:51:51;;;;;;;4.65;2.60;;;;;;;;;;10363056;28;20026;-63
2024/01/09 01:56:53;;;;;;;4.43;2.42;;;;;;;;;;10364870;28;20046;-64
2024/01/09 02:01:54;;;;;;;4.10;2.50;;;;;;;;;;10363817;28;20046;-65
2024/01/09 02:06:54;;;;;;;3.45;2.33;;;;;;;;;;10363773;28;20037;-66
2024/01/09 02:11:56;;;;;;;2.90;2.30;;;;;;;;;;10365416;28;20029;-64
2024/01/09 02:16:56;;;;;;;4.10;2.53;;;;;;;;;;10363599;28;20129;-64
2024/01/09 02:21:57;;;;;;;3.35;2.63;;;;;;;;;;10364612;28;20161;-64
2024/01/09 02:27:19;;;;;;;3.90;2.70;;;;;;;;;;10362163;28;20025;-63
2024/01/09 02:32:21;;;;;;;2.95;2.15;;;;;;;;;;10355165;28;20169;-66
2024/01/09 02:37:21;;;;;;;5.18;2.40;;;;;;;;;;10363358;28;20077;-66
2024/01/09 02:42:22;;;;;;;4.53;2.50;;;;;;;;;;10362585;28;20026;-65
2024/01/09 02:47:23;;;;;;;3.50;2.45;;;;;;;;;;10365102;28;20021;-66
2024/01/09 02:52:23;;;;;;;3.15;2.30;;;;;;;;;;10363623;28;20054;-66
2024/01/09 02:57:24;;;;;;;3.42;2.35;;;;;;;;;;10362999;28;20045;-65
2024/01/09 03:02:24;;;;;;;8.18;2.33;;;;;;;;;;10362849;28;20037;-64
2024/01/09 03:07:25;;;;;;;2.58;2.33;;;;;;;;;;10360792;28;20033;-64
2024/01/09 03:12:26;;;;;;;2.97;2.10;;;;;;;;;;10361721;28;20037;-63
2024/01/09 03:17:26;;;;;;;3.78;2.85;;;;;;;;;;10361980;28;20034;-64
2024/01/09 03:22:27;;;;;;;3.30;2.40;;;;;;;;;;10362053;28;20030;-64
2024/01/09 03:27:27;;;;;;;3.45;2.30;;;;;;;;;;10361528;28;20032;-63
2024/01/09 03:32:28;;;;;;;2.78;2.00;;;;;;;;;;10362156;28;20045;-65
2024/01/09 03:37:28;;;;;;;4.07;2.30;;;;;;;;;;10361502;28;20060;-65
2024/01/09 03:42:29;;;;;;;2.95;2.15;;;;;;;;;;10362014;28;20029;-65
2024/01/09 03:47:29;;;;;;;2.55;2.35;;;;;;;;;;10370290;28;20057;-66
2024/01/09 03:52:30;;;;;;;2.35;2.08;;;;;;;;;;10369084;28;20026;-66
2024/01/09 03:57:30;;;;;;;4.63;2.80;;;;;;;;;;10369333;28;20030;-66
2024/01/09 04:02:31;;;;;;;3.67;2.65;;;;;;;;;;10357137;28;20041;-66
2024/01/09 04:07:32;;;;;;;2.47;2.28;;;;;;;;;;10369440;28;20217;-66
2024/01/09 04:12:33;;;;;;;2.33;2.13;;;;;;;;;;10344702;28;20035;-67
2024/01/09 04:17:33;;;;;;;3.08;2.42;;;;;;;;;;10366753;28;20030;-66
2024/01/09 04:22:34;;;;;;;2.78;2.45;;;;;;;;;;10368070;28;20156;-65
2024/01/09 04:27:34;;;;;;;4.15;2.25;;;;;;;;;;10368087;28;20033;-65
2024/01/09 04:32:35;;;;;;;2.75;2.50;;;;;;;;;;10368434;28;20514;-65
2024/01/09 04:37:35;;;;;;;3.50;2.50;;;;;;;;;;10367440;28;20052;-65
2024/01/09 04:42:36;;;;;;;2.70;2.30;;;;;;;;;;10367945;28;20030;-66
2024/01/09 04:47:36;;;;;;;2.42;2.03;;;;;;;;;;10365030;28;20079;-65
2024/01/09 04:52:37;;;;;;;2.17;1.92;;;;;;;;;;10355421;28;20030;-64
2024/01/09 04:57:38;;;;;;;3.53;2.42;;;;;;;;;;10367117;28;20026;-65
2024/01/09 05:02:38;;;;;;;2.53;2.10;;;;;;;;;;10367432;28;20562;-64
2024/01/09 05:07:39;;;;;;;2.42;2.22;;;;;;;;;;10366114;28;20042;-63
2024/01/09 05:12:39;;;;;;;3.60;2.53;;;;;;;;;;10366383;28;20403;-63
2024/01/09 05:17:40;;;;;;;2.30;2.10;;;;;;;;;;10365731;28;20419;-63
2024/01/09 05:22:41;;;;;;;2.45;2.10;;;;;;;;;;10365763;28;20033;-63
2024/01/09 05:27:41;;;;;;;2.35;2.15;;;;;;;;;;10365586;28;20034;-63
2024/01/09 05:32:42;;;;;;;3.40;2.40;;;;;;;;;;10366047;28;20335;-63
2024/01/09 05:37:42;;;;;;;2.60;2.40;;;;;;;;;;10365140;28;20057;-63
2024/01/09 05:42:44;;;;;;;3.00;2.42;;;;;;;;;;10365816;28;20025;-63
2024/01/09 05:47:44;;;;;;;3.47;2.30;;;;;;;;;;10364190;28;20026;-63
2024/01/09 05:52:45;;;;;;;2.33;2.13;;;;;;;;;;10363938;28;20397;-66
2024/01/09 05:57:45;;;;;;;2.70;2.15;;;;;;;;;;10353895;28;20029;-64
2024/01/09 06:02:46;;;;;;;3.22;2.40;;;;;;;;;;10354495;28;20035;-64
2024/01/09 06:07:46;;;;;;;2.90;2.10;;;;;;;;;;10350622;28;20040;-66
2024/01/09 06:12:47;;;;;;;2.25;2.05;;;;;;;;;;10352774;28;20069;-66
2024/01/09 06:17:48;;;;;;;3.63;2.50;;;;;;;;;;10352314;28;20040;-65
2024/01/09 06:22:48;;;;;;;2.03;1.92;;;;;;;;;;10362486;28;20033;-64
2024/01/09 06:27:49;;;;;;;3.65;2.40;;;;;;;;;;10351687;28;20037;-64
2024/01/09 06:32:50;;;;;;;2.30;2.10;;;;;;;;;;10333614;28;20084;-63
2024/01/09 06:37:50;;;;;;;2.67;2.10;;;;;;;;;;10340026;28;20100;-63
2024/01/09 06:42:51;;;;;;;2.40;2.20;;;;;;;;;;10351936;28;20034;-66
2024/01/09 06:47:52;;;;;;;4.82;3.00;;;;;;;;;;10360238;28;20095;-66
2024/01/09 06:52:53;;;;;;;3.55;3.20;;;;;;;;;;10364018;28;20540;-68
2024/01/09 06:57:53;;;;;;;5.32;3.15;;;;;;;;;;10361246;28;20033;-72
2024/01/09 07:02:54;;;;;;;4.85;3.40;;;;;;;;;;10362214;28;20026;-71
2024/01/09 07:07:54;;;;;;;5.22;3.10;;;;;;;;;;10351541;28;20092;-65
2024/01/09 07:12:56;;;;;;;17.30;4.07;;;;;;;;;;10376137;28;20044;-65
2024/01/09 07:17:57;;;;;;;4.15;3.58;;;;;;;;;;10362579;28;20026;-65
2024/01/09 07:22:57;;;;;;;8.02;4.15;;;;;;;;;;10364157;28;20045;-65
2024/01/09 07:27:58;;;;;;;17.60;3.72;;;;;;;;;;10364951;28;20030;-65
2024/01/09 07:32:59;;;;;;;9.55;3.97;;;;;;;;;;10361270;28;20030;-66
2024/01/09 07:37:59;;;;;;;9.43;4.28;;;;;;;;;;10366411;28;20494;-65
2024/01/09 07:43:00;;;;;;;7.45;3.88;;;;;;;;;;10366543;28;20072;-65
2024/01/09 07:48:01;;;;;;;4.82;3.92;;;;;;;;;;10369859;28;20029;-65
2024/01/09 07:53:02;;;;;;;5.63;3.95;;;;;;;;;;10369840;28;20481;-65
2024/01/09 07:58:04;;;;;;;10.85;4.60;;;;;;;;;;10367349;28;20113;-65
2024/01/09 08:03:05;;;;;;;6.95;3.75;;;;;;;;;;10369227;28;20359;-65
2024/01/09 08:08:06;;;;;;;6.32;3.88;;;;;;;;;;10368785;28;20025;-65
2024/01/09 08:13:07;;;;;;;7.17;4.37;;;;;;;;;;10368332;28;20037;-65
2024/01/09 08:18:07;;;;;;;10.68;4.40;;;;;;;;;;10368575;28;20045;-65
2024/01/09 08:23:08;;;;;;;5.68;4.20;;;;;;;;;;10368508;28;20034;-65
2024/01/09 08:28:09;;;;;;;6.15;4.35;;;;;;;;;;10367988;28;20042;-65
2024/01/09 08:33:10;;;;;;;6.97;4.35;;;;;;;;;;10367172;28;20034;-65
2024/01/09 08:38:11;;;;;;;12.07;4.70;;;;;;;;;;10368523;28;20411;-65
2024/01/09 08:43:11;;;;;;;6.75;4.50;;;;;;;;;;10367161;28;20033;-65
2024/01/09 08:48:12;;;;;;;6.38;4.53;;;;;;;;;;10366981;28;20029;-65
2024/01/09 08:53:12;;;;;;;8.00;4.32;;;;;;;;;;10367633;28;20022;-65
2024/01/09 08:58:13;;;;;;;9.23;4.25;;;;;;;;;;10366293;28;20142;-65
2024/01/09 09:03:14;;;;;;;7.00;4.45;;;;;;;;;;10366648;28;20021;-65
2024/01/09 09:08:14;;;;;;;9.98;4.82;;;;;;;;;;10365945;28;20030;-65
2024/01/09 09:13:15;;;;;;;7.15;4.55;;;;;;;;;;10366274;28;20084;-65
2024/01/09 09:18:15;;;;;;;7.05;4.22;;;;;;;;;;10365925;28;20030;-65
2024/01/09 09:23:16;;;;;;;6.28;4.35;;;;;;;;;;10365907;28;20472;-65
2024/01/09 09:28:16;;;;;;;6.18;4.45;;;;;;;;;;10365672;28;20036;-65
2024/01/09 09:33:17;;;;;;;9.65;4.30;;;;;;;;;;10352396;28;20029;-65
2024/01/09 09:38:18;;;;;;;8.75;4.78;;;;;;;;;;10353064;28;20050;-65
2024/01/09 09:43:25;;;;;;;5.25;4.28;;;;;;;;;;10353182;28;20026;-65
2024/01/09 09:48:28;;;;;;;6.93;4.47;;;;;;;;;;10361467;28;20453;-65
2024/01/09 09:53:30;;;;;;;5.78;4.18;;;;;;;;;;10351594;28;20034;-64
2024/01/09 09:58:31;;;;;;;5.25;4.22;;;;;;;;;;10350570;28;20033;-65
2024/01/09 10:03:33;;;;;;;7.30;4.43;;;;;;;;;;10358812;28;20026;-65
2024/01/09 10:08:34;;;;;;;6.65;4.10;;;;;;;;;;10357131;28;20028;-65
2024/01/09 10:13:35;;;;;;;8.68;4.45;;;;;;;;;;10359896;28;20493;-65
2024/01/09 10:18:36;;;;;;;7.60;4.60;;;;;;;;;;10358361;28;20033;-65
2024/01/09 10:23:39;;;;;;;18.25;4.50;;;;;;;;;;10363818;28;20171;-65
2024/01/09 10:28:41;;;;;;;6.80;4.13;;;;;;;;;;10355354;28;20369;-65
2024/01/09 10:33:42;;;;;;;8.25;4.40;;;;;;;;;;10359699;28;20076;-65
2024/01/09 10:38:45;;;;;;;8.60;4.45;;;;;;;;;;10341785;28;20056;-65
2024/01/09 10:43:49;;;;;;;6.70;4.70;;;;;;;;;;10357657;28;20396;-65
2024/01/09 10:48:51;;;;;;;4.88;3.80;;;;;;;;;;10351329;28;20068;-65
2024/01/09 10:53:53;;;;;;;9.25;3.97;;;;;;;;;;10365952;28;20026;-65
2024/01/09 10:58:54;;;;;;;6.80;4.25;;;;;;;;;;10368693;28;20034;-65
2024/01/09 11:03:55;;;;;;;4.45;4.00;;;;;;;;;;10344050;28;20025;-65
2024/01/09 11:08:58;;;;;;;5.47;3.55;;;;;;;;;;10369784;28;20034;-65
2024/01/09 11:14:08;;;;;;;7.30;3.90;;;;;;;;;;10368899;28;20026;-65
2024/01/09 11:19:13;;;;;;;4.30;3.75;;;;;;;;;;10360707;28;20249;-65
2024/01/09 11:24:13;;;;;;;5.18;3.85;;;;;;;;;;10342648;28;20041;-65
2024/01/09 11:29:17;;;;;;;3.95;3.50;;;;;;;;;;10369292;28;20026;-65
2024/01/09 11:34:27;;;;;;;8.35;3.58;;;;;;;;;;10357152;28;20022;-65
2024/01/09 11:39:29;;;;;;;4.68;3.60;;;;;;;;;;10327281;23;20426;-51
2024/01/09 11:44:30;;;;;;;5.18;3.55;;;;;;;;;;10330880;28;20101;-48
2024/01/09 11:49:30;;;;;;;7.88;3.70;;;;;;;;;;10319763;28;20042;-50
2024/01/09 11:54:32;;;;;;;6.13;3.65;;;;;;;;;;10333777;28;20035;-51
2024/01/09 11:59:33;;;;;;;5.57;3.90;;;;;;;;;;10326197;28;20380;-51
2024/01/09 12:04:33;;;;;;;5.40;3.72;;;;;;;;;;10315373;28;20050;-51
2024/01/09 12:09:34;;;;;;;4.72;3.70;;;;;;;;;;10318825;28;20428;-50
2024/01/09 12:14:35;;;;;;;5.18;3.88;;;;;;;;;;10318530;28;20399;-50
2024/01/09 12:19:35;;;;;;;5.43;3.42;;;;;;;;;;10325469;28;20390;-51
2024/01/09 12:24:36;;;;;;;5.03;3.50;;;;;;;;;;10310987;28;20038;-51
2024/01/09 12:29:37;;;;;;;5.10;3.78;;;;;;;;;;10327911;28;20030;-51
2024/01/09 12:34:42;;;;;;;6.88;3.65;;;;;;;;;;10317114;28;20057;-48
2024/01/09 12:39:42;;;;;;;13.43;4.60;;;;;;;;;;10301522;28;20391;-47
2024/01/09 12:44:43;;;;;;;4.82;3.63;;;;;;;;;;10320158;28;20042;-50
2024/01/09 12:49:49;;;;;;;4.75;3.22;;;;;;;;;;10325420;28;20092;-47
2024/01/09 12:54:51;;;;;;;5.93;3.70;;;;;;;;;;10309547;28;20139;-50
2024/01/09 12:59:52;;;;;;;5.15;3.70;;;;;;;;;;10321246;28;20101;-48
2024/01/09 13:04:53;;;;;;;4.47;3.60;;;;;;;;;;10309938;28;20101;-49
2024/01/09 13:09:54;;;;;;;4.25;3.42;;;;;;;;;;10324502;28;20177;-55
2024/01/09 13:14:54;;;;;;;4.60;3.25;;;;;;;;;;10325908;28;20026;-55
2024/01/09 13:19:55;;;;;;;4.68;3.42;;;;;;;;;;10318431;28;20039;-51
2024/01/09 13:24:56;;;;;;;6.90;3.53;;;;;;;;;;10317061;28;20033;-48
2024/01/09 13:29:57;;;;;;;7.30;3.20;;;;;;;;;;10322935;28;20049;-50
2024/01/09 13:34:57;;;;;;;5.57;3.45;;;;;;;;;;10323674;28;20487;-56
2024/01/09 13:39:58;;;;;;;6.45;3.47;;;;;;;;;;10313439;28;20042;-51
2024/01/09 13:45:00;;;;;;;4.40;3.42;;;;;;;;;;10337262;28;20026;-48
2024/01/09 13:50:00;;;;;;;5.85;3.60;;;;;;;;;;10321158;28;20370;-51
2024/01/09 13:55:03;;;;;;;4.82;3.40;;;;;;;;;;10322726;28;20045;-50
2024/01/09 14:00:09;;;;;;;4.07;3.42;;;;;;;;;;10316368;28;20540;-48
2024/01/09 14:05:09;;;;;;;4.30;3.10;;;;;;;;;;10324266;28;20034;-47
2024/01/09 14:10:11;;;;;;;3.85;3.10;;;;;;;;;;10318565;28;20382;-47
2024/01/09 14:15:13;;;;;;;4.38;3.10;;;;;;;;;;10310561;28;20046;-51
2024/01/09 14:20:14;;;;;;;4.35;2.83;;;;;;;;;;10315174;28;20561;-56
2024/01/09 14:25:14;;;;;;;12.30;3.38;;;;;;;;;;10329780;28;20028;-46
2024/01/09 14:30:18;;;;;;;4.47;2.88;;;;;;;;;;10329679;28;20026;-50
2024/01/09 14:35:20;;;;;;;3.47;2.83;;;;;;;;;;10321204;28;20041;-50
2024/01/09 14:40:21;;;;;;;5.15;3.05;;;;;;;;;;10325645;28;20018;-47
2024/01/09 14:45:22;;;;;;;3.55;3.10;;;;;;;;;;10320177;28;20028;-51
2024/01/09 14:50:22;;;;;;;5.68;3.25;;;;;;;;;;10328612;28;20026;-52
2024/01/09 14:55:24;;;;;;;3.65;3.25;;;;;;;;;;10326478;28;20030;-57
2024/01/09 15:00:24;;;;;;;3.42;2.90;;;;;;;;;;10336317;28;20478;-48
2024/01/09 15:05:25;;;;;;;4.75;3.08;;;;;;;;;;10324270;28;20038;-50
2024/01/09 15:10:25;;;;;;;6.05;3.15;;;;;;;;;;10322187;28;20038;-50
2024/01/09 15:15:26;;;;;;;3.50;3.10;;;;;;;;;;10333200;28;20034;-51
2024/01/09 15:20:27;;;;;;;6.32;3.63;;;;;;;;;;10302187;28;20030;-52
2024/01/09 15:25:27;;;;;;;6.97;3.03;;;;;;;;;;10293451;28;20034;-54
2024/01/09 15:30:28;;;;;;;4.18;3.10;;;;;;;;;;10249721;28;20057;-49
2024/01/09 15:35:28;;;;;;;4.30;2.90;;;;;;;;;;10254908;28;20410;-49
2024/01/09 15:40:30;;;;;;;4.53;2.95;;;;;;;;;;10259696;28;20394;-49
2024/01/09 15:45:31;;;;;;;4.88;3.25;;;;;;;;;;10262422;28;20026;-51
2024/01/09 15:50:32;;;;;;;4.00;3.15;;;;;;;;;;10262925;28;20033;-51
2024/01/09 15:55:33;;;;;;;4.40;3.05;;;;;;;;;;10262659;28;20045;-47
2024/01/09 16:00:33;;;;;;;4.97;2.80;;;;;;;;;;10261030;28;20073;-51
2024/01/09 16:05:34;;;;;;;5.43;2.78;;;;;;;;;;10260879;28;20021;-49
2024/01/09 16:10:34;;;;;;;5.65;3.22;;;;;;;;;;10297450;28;20026;-50
2024/01/09 16:15:38;;;;;;;5.03;3.08;;;;;;;;;;10322963;28;20030;-51
2024/01/09 16:20:40;;;;;;;5.60;3.10;;;;;;;;;;10318802;28;20397;-49
2024/01/09 16:25:40;;;;;;;6.72;3.45;;;;;;;;;;10318243;28;20529;-49
2024/01/09 16:30:41;;;;;;;3.92;3.03;;;;;;;;;;10272088;28;20054;-47
2024/01/09 16:35:41;;;;;;;5.00;3.10;;;;;;;;;;10271236;28;20046;-49
2024/01/09 16:40:43;;;;;;;3.50;2.85;;;;;;;;;;10253660;28;20034;-50
2024/01/09 16:45:45;;;;;;;4.57;2.95;;;;;;;;;;10311173;28;20217;-48
2024/01/09 16:50:47;;;;;;;4.35;3.30;;;;;;;;;;10332923;28;20287;-53
2024/01/09 16:55:53;;;;;;;6.43;3.55;;;;;;;;;;10299762;28;20072;-59
2024/01/09 17:00:54;;;;;;;3.58;3.17;;;;;;;;;;10311512;28;20041;-48
2024/01/09 17:05:55;;;;;;;3.83;3.35;;;;;;;;;;10334959;28;20134;-51
2024/01/09 17:10:56;;;;;;;8.23;3.22;;;;;;;;;;10309193;28;20030;-51
2024/01/09 17:15:57;;;;;;;4.15;2.95;;;;;;;;;;10303707;28;20484;-49
2024/01/09 17:20:58;;;;;;;5.45;3.30;;;;;;;;;;10287001;28;20045;-51
2024/01/09 17:25:59;;;;;;;5.72;3.42;;;;;;;;;;10312532;28;20489;-48
2024/01/09 17:31:00;;;;;;;5.55;3.60;;;;;;;;;;10338724;28;20128;-50
2024/01/09 17:36:01;;;;;;;6.25;3.70;;;;;;;;;;10285002;28;20046;-57
2024/01/09 17:41:02;;;;;;;7.32;3.40;;;;;;;;;;10326840;28;20045;-53
2024/01/09 17:46:04;;;;;;;5.63;2.90;;;;;;;;;;10331568;28;20026;-53
2024/01/09 17:51:05;;;;;;;4.65;3.45;;;;;;;;;;10313574;28;20027;-55
2024/01/09 17:56:07;;;;;;;7.07;3.58;;;;;;;;;;10266229;28;20044;-49
2024/01/09 18:01:08;;;;;;;6.00;3.65;;;;;;;;;;10296443;28;20041;-51
2024/01/09 18:06:08;;;;;;;5.88;4.20;;;;;;;;;;10316644;28;20038;-50
2024/01/09 18:11:21;;;;;;;4.30;3.88;;;;;;;;;;10320424;28;20370;-51
2024/01/09 18:16:21;;;;;;;7.78;4.90;;;;;;;;;;10277678;28;20030;-51
2024/01/09 18:21:27;;;;;;;7.38;4.68;;;;;;;;;;10304201;28;20026;-47
2024/01/09 18:26:28;;;;;;;6.60;4.22;;;;;;;;;;10280158;28;20560;-52
2024/01/09 18:31:28;;;;;;;6.93;4.53;;;;;;;;;;10243849;28;20099;-51
2024/01/09 18:36:29;;;;;;;9.52;4.10;;;;;;;;;;10245586;28;20041;-50
2024/01/09 18:41:31;;;;;;;7.45;4.45;;;;;;;;;;10244378;28;20363;-46
2024/01/09 18:46:31;;;;;;;6.90;4.38;;;;;;;;;;10247927;28;20030;-49
2024/01/09 18:51:32;;;;;;;4.68;3.90;;;;;;;;;;10246526;28;20388;-52
2024/01/09 18:56:35;;;;;;;5.78;3.78;;;;;;;;;;10250798;28;20034;-50
2024/01/09 19:01:39;;;;;;;9.95;3.78;;;;;;;;;;10247268;28;20058;-50
2024/01/09 19:06:40;;;;;;;5.47;3.30;;;;;;;;;;10242698;28;20621;-51
2024/01/09 19:11:41;;;;;;;9.85;3.97;;;;;;;;;;10287617;28;20030;-48
2024/01/09 19:16:44;;;;;;;6.15;3.63;;;;;;;;;;10265136;28;20045;-51
2024/01/09 19:21:45;;;;;;;6.13;3.70;;;;;;;;;;10244995;28;20030;-48
2024/01/09 19:26:46;;;;;;;8.70;4.10;;;;;;;;;;10328780;28;20637;-50
2024/01/09 19:31:49;;;;;;;8.32;4.95;;;;;;;;;;10349789;28;20146;-50
2024/01/09 19:36:49;;;;;;;10.38;4.50;;;;;;;;;;10319907;28;20395;-52
2024/01/09 19:41:50;;;;;;;10.35;4.53;;;;;;;;;;10327141;28;20042;-52
2024/01/09 19:46:51;;;;;;;8.73;4.07;;;;;;;;;;10334283;28;20433;-49
2024/01/09 19:51:52;;;;;;;8.00;4.43;;;;;;;;;;10306979;28;20043;-49
2024/01/09 19:56:53;;;;;;;7.53;4.40;;;;;;;;;;10324785;28;20482;-49
2024/01/09 20:01:54;;;;;;;7.95;4.03;;;;;;;;;;10304305;28;20039;-51
2024/01/09 20:06:54;;;;;;;5.60;3.97;;;;;;;;;;10307024;28;20022;-52
2024/01/09 20:11:58;;;;;;;5.38;3.65;;;;;;;;;;10328079;28;20478;-50
2024/01/09 20:16:59;;;;;;;8.27;4.00;;;;;;;;;;10326985;28;20039;-51
2024/01/09 20:22:00;;;;;;;8.18;3.90;;;;;;;;;;10314803;28;20026;-55
2024/01/09 20:27:00;;;;;;;8.35;4.72;;;;;;;;;;10315637;28;20366;-51
2024/01/09 20:32:01;;;;;;;8.70;4.20;;;;;;;;;;10340965;28;20438;-54
2024/01/09 20:37:02;;;;;;;6.30;3.97;;;;;;;;;;10330381;28;20391;-49
2024/01/09 20:42:04;;;;;;;6.00;4.00;;;;;;;;;;10318554;28;20034;-51
2024/01/09 20:47:04;;;;;;;5.55;4.05;;;;;;;;;;10307332;28;20034;-51
2024/01/09 20:52:05;;;;;;;8.20;4.28;;;;;;;;;;10323877;28;20112;-49
2024/01/09 20:57:06;;;;;;;7.90;3.95;;;;;;;;;;10320854;28;20057;-47
2024/01/09 21:02:06;;;;;;;8.45;4.00;;;;;;;;;;10321004;28;20112;-47
2024/01/09 21:07:07;;;;;;;8.70;4.03;;;;;;;;;;10297951;28;20026;-46
2024/01/09 21:12:08;;;;;;;8.85;4.68;;;;;;;;;;10324347;28;20030;-46
2024/01/09 21:17:08;;;;;;;9.63;5.00;;;;;;;;;;10320634;28;20077;-49
2024/01/09 21:22:09;;;;;;;10.68;5.47;;;;;;;;;;10315948;28;20375;-47
2024/01/09 21:27:10;;;;;;;8.18;5.25;;;;;;;;;;10314952;28;20034;-50
2024/01/09 21:32:13;;;;;;;11.35;5.40;;;;;;;;;;10311835;28;20030;-46
2024/01/09 21:37:14;;;;;;;12.00;5.85;;;;;;;;;;10322184;28;20066;-46
2024/01/09 21:42:15;;;;;;;6.82;4.95;;;;;;;;;;10266774;28;20033;-50
2024/01/09 21:47:16;;;;;;;9.43;5.32;;;;;;;;;;10312896;28;20050;-49
2024/01/09 21:52:16;;;;;;;13.93;5.60;;;;;;;;;;10322042;28;20154;-51
2024/01/09 21:57:18;;;;;;;8.90;5.05;;;;;;;;;;10272566;28;20046;-47
2024/01/09 22:02:20;;;;;;;8.32;5.45;;;;;;;;;;10243062;28;20030;-51
2024/01/09 22:07:21;;;;;;;10.82;5.57;;;;;;;;;;10246790;28;20037;-49
2024/01/09 22:12:21;;;;;;;9.23;5.40;;;;;;;;;;10249358;28;20061;-51
2024/01/09 22:17:22;;;;;;;9.07;5.43;;;;;;;;;;10244358;28;20031;-54
2024/01/09 22:22:24;;;;;;;8.82;5.38;;;;;;;;;;10221132;28;20068;-56
2024/01/09 22:27:25;;;;;;;11.55;5.72;;;;;;;;;;10243655;28;20030;-54
2024/01/09 22:32:25;;;;;;;8.95;5.53;;;;;;;;;;10247862;28;20034;-55
2024/01/09 22:37:26;;;;;;;9.27;5.22;;;;;;;;;;10244907;28;20081;-56
2024/01/09 22:42:27;;;;;;;10.10;5.20;;;;;;;;;;10245468;28;20045;-57
2024/01/09 22:47:27;;;;;;;9.93;5.57;;;;;;;;;;10311140;28;20312;-53
2024/01/09 22:52:28;;;;;;;9.15;5.47;;;;;;;;;;10315005;28;20034;-57
2024/01/09 22:57:28;;;;;;;10.68;4.97;;;;;;;;;;10332304;28;20512;-50
2024/01/09 23:02:29;;;;;;;9.02;5.15;;;;;;;;;;10317660;28;20489;-51
2024/01/09 23:07:29;;;;;;;7.13;4.82;;;;;;;;;;10314495;28;20038;-56
2024/01/09 23:12:30;;;;;;;6.82;4.70;;;;;;;;;;10321617;28;20026;-56
2024/01/09 23:17:31;;;;;;;10.07;5.25;;;;;;;;;;10335439;28;20121;-53
2024/01/09 23:22:31;;;;;;;7.97;5.22;;;;;;;;;;10322457;28;20022;-56
2024/01/09 23:27:32;;;;;;;10.05;5.32;;;;;;;;;;10328356;28;20018;-52
2024/01/09 23:32:33;;;;;;;11.65;5.22;;;;;;;;;;10315663;28;20034;-53
2024/01/09 23:37:33;;;;;;;7.82;4.70;;;;;;;;;;10335555;28;20047;-53
2024/01/09 23:42:34;;;;;;;13.80;5.45;;;;;;;;;;10333226;28;20030;-53
2024/01/09 23:47:35;;;;;;;12.05;4.65;;;;;;;;;;10307345;28;20045;-52
2024/01/09 23:52:35;;;;;;;6.63;4.43;;;;;;;;;;10317192;28;20026;-53
2024/01/09 23:57:36;;;;;;;10.10;4.95;;;;;;;;;;10329735;28;20034;-51
